createdAt,value
2022-09-02T00:01:27.663Z,20.31
2022-09-02T00:03:59.180Z,20.17
2022-09-02T00:06:27.852Z,20.19
2022-09-02T00:08:56.840Z,20.22
2022-09-02T00:11:28.801Z,20.13
2022-09-02T00:13:58.334Z,20.11
2022-09-02T00:16:27.027Z,20.07
2022-09-02T00:18:56.500Z,20.16
2022-09-02T00:21:25.597Z,20.19
2022-09-02T00:23:54.696Z,20.17
2022-09-02T00:26:22.902Z,20.20
2022-09-02T00:28:56.312Z,20.28
2022-09-02T00:31:25.718Z,20.30
2022-09-02T00:33:53.783Z,20.28
2022-09-02T00:36:22.381Z,20.34
2022-09-02T00:38:50.699Z,20.30
2022-09-02T00:41:21.298Z,20.33
2022-09-02T00:43:53.193Z,20.12
2022-09-02T00:46:23.671Z,20.13
2022-09-02T00:48:57.645Z,20.30
2022-09-02T00:51:29.284Z,20.35
2022-09-02T00:53:57.711Z,20.44
2022-09-02T00:56:29.137Z,20.50
2022-09-02T00:59:00.336Z,20.63
2022-09-02T01:01:28.487Z,20.68
2022-09-02T01:03:56.799Z,20.61
2022-09-02T01:06:28.657Z,20.50
2022-09-02T01:09:02.740Z,20.54
2022-09-02T01:11:38.609Z,20.41
2022-09-02T01:14:10.131Z,20.17
2022-09-02T01:16:43.037Z,20.31
2022-09-02T01:19:19.663Z,20.37
2022-09-02T01:21:50.743Z,20.46
2022-09-02T01:24:21.531Z,20.42
2022-09-02T01:26:50.154Z,20.20
2022-09-02T01:29:18.222Z,20.12
2022-09-02T01:31:46.747Z,19.99
2022-09-02T01:34:15.056Z,19.90
2022-09-02T01:36:44.465Z,19.82
2022-09-02T01:39:14.594Z,19.85
2022-09-02T01:41:42.774Z,19.87
2022-09-02T01:44:12.365Z,19.78
2022-09-02T01:46:40.523Z,19.65
2022-09-02T01:49:08.636Z,19.61
2022-09-02T01:51:36.832Z,19.51
2022-09-02T01:54:05.874Z,19.38
2022-09-02T01:56:35.357Z,19.36
2022-09-02T01:59:04.679Z,19.42
2022-09-02T02:01:32.757Z,19.40
2022-09-02T02:04:01.592Z,19.42
2022-09-02T02:06:29.968Z,19.39
2022-09-02T02:08:57.974Z,19.38
2022-09-02T02:11:26.759Z,19.39
2022-09-02T02:13:56.130Z,19.38
2022-09-02T02:16:25.353Z,19.48
2022-09-02T02:18:53.426Z,19.51
2022-09-02T02:21:30.231Z,19.53
2022-09-02T02:24:00.466Z,19.56
2022-09-02T02:26:28.667Z,19.64
2022-09-02T02:28:58.159Z,19.71
2022-09-02T02:31:26.135Z,19.76
2022-09-02T02:33:54.178Z,19.75
2022-09-02T02:36:23.130Z,19.71
2022-09-02T02:38:51.075Z,19.69
2022-09-02T02:41:19.048Z,19.75
2022-09-02T02:43:47.886Z,19.72
2022-09-02T02:46:17.995Z,19.67
2022-09-02T02:48:46.059Z,19.68
2022-09-02T02:51:14.830Z,19.67
2022-09-02T02:53:42.838Z,19.57
2022-09-02T02:56:11.527Z,19.57
2022-09-02T02:58:39.472Z,19.55
2022-09-02T03:01:08.009Z,19.44
2022-09-02T03:03:37.456Z,19.38
2022-09-02T03:06:05.834Z,19.33
2022-09-02T03:08:36.837Z,19.31
2022-09-02T03:11:07.108Z,19.24
2022-09-02T03:13:36.275Z,19.27
2022-09-02T03:16:06.225Z,19.24
2022-09-02T03:18:34.537Z,19.15
2022-09-02T03:21:08.626Z,19.12
2022-09-02T03:23:37.363Z,19.11
2022-09-02T03:26:11.179Z,19.09
2022-09-02T03:28:39.505Z,19.08
2022-09-02T03:31:08.292Z,19.13
2022-09-02T03:33:36.367Z,19.03
2022-09-02T03:36:06.157Z,18.96
2022-09-02T03:38:35.730Z,18.96
2022-09-02T03:41:03.780Z,18.95
2022-09-02T03:43:31.802Z,18.91
2022-09-02T03:45:59.908Z,18.88
2022-09-02T03:48:29.468Z,18.84
2022-09-02T03:50:57.543Z,18.84
2022-09-02T03:53:27.052Z,18.81
2022-09-02T03:55:55.275Z,18.84
2022-09-02T03:58:23.944Z,18.86
2022-09-02T04:00:53.269Z,18.84
2022-09-02T04:03:21.811Z,18.82
2022-09-02T04:05:50.920Z,18.79
2022-09-02T04:08:19.337Z,18.88
2022-09-02T04:10:48.818Z,18.94
2022-09-02T04:13:20.339Z,18.92
2022-09-02T04:15:49.554Z,18.90
2022-09-02T04:18:18.843Z,18.98
2022-09-02T04:20:46.970Z,19.04
2022-09-02T04:23:16.095Z,19.04
2022-09-02T04:25:44.986Z,19.08
2022-09-02T04:28:14.387Z,19.11
2022-09-02T04:30:43.659Z,19.09
2022-09-02T04:33:12.160Z,19.14
2022-09-02T04:35:41.759Z,19.13
2022-09-02T04:38:09.913Z,19.14
2022-09-02T04:40:41.510Z,19.09
2022-09-02T04:43:09.690Z,19.14
2022-09-02T04:45:41.056Z,19.17
2022-09-02T04:48:09.171Z,19.23
2022-09-02T04:50:38.751Z,19.14
2022-09-02T04:53:07.444Z,19.20
2022-09-02T04:55:36.518Z,19.14
2022-09-02T04:58:04.886Z,19.20
2022-09-02T05:00:33.472Z,19.23
2022-09-02T05:03:04.756Z,19.23
2022-09-02T05:05:32.825Z,19.21
2022-09-02T05:08:01.049Z,19.28
2022-09-02T05:10:29.096Z,19.33
2022-09-02T05:12:57.367Z,19.27
2022-09-02T05:15:25.437Z,19.07
2022-09-02T05:17:54.373Z,19.31
2022-09-02T05:20:24.178Z,19.34
2022-09-02T05:22:52.229Z,19.42
2022-09-02T05:25:20.952Z,19.46
2022-09-02T05:27:49.084Z,19.48
2022-09-02T05:30:17.374Z,19.44
2022-09-02T05:32:46.605Z,19.49
2022-09-02T05:35:14.639Z,19.52
2022-09-02T05:37:44.195Z,19.47
2022-09-02T05:40:14.819Z,19.52
2022-09-02T05:42:43.630Z,19.51
2022-09-02T05:45:14.056Z,19.55
2022-09-02T05:47:44.887Z,19.54
2022-09-02T05:50:15.051Z,19.61
2022-09-02T05:52:47.046Z,19.63
2022-09-02T05:55:15.078Z,19.69
2022-09-02T05:57:43.545Z,19.75
2022-09-02T06:00:17.752Z,19.80
2022-09-02T06:02:46.929Z,19.82
2022-09-02T06:05:15.140Z,19.86
2022-09-02T06:07:44.579Z,19.88
2022-09-02T06:10:13.105Z,19.96
2022-09-02T06:12:42.791Z,20.05
2022-09-02T06:15:12.493Z,20.00
2022-09-02T06:17:41.541Z,20.02
2022-09-02T06:20:10.844Z,20.13
2022-09-02T06:22:40.269Z,20.15
2022-09-02T06:25:46.573Z,20.07
2022-09-02T06:28:14.927Z,20.10
2022-09-02T06:30:45.466Z,20.05
2022-09-02T06:33:15.457Z,20.18
2022-09-02T06:35:45.459Z,20.07
2022-09-02T06:38:15.114Z,20.20
2022-09-02T06:40:50.384Z,20.11
2022-09-02T06:43:18.795Z,20.22
2022-09-02T06:45:47.117Z,20.31
2022-09-02T06:48:15.722Z,20.44
2022-09-02T06:50:47.043Z,20.41
2022-09-02T06:53:18.030Z,20.44
2022-09-02T06:55:48.444Z,20.42
2022-09-02T06:58:17.050Z,20.30
2022-09-02T07:00:45.937Z,20.42
2022-09-02T07:03:31.820Z,20.30
2022-09-02T07:06:02.606Z,20.33
2022-09-02T07:08:31.465Z,20.29
2022-09-02T07:11:01.431Z,20.30
2022-09-02T07:13:29.658Z,20.41
2022-09-02T07:15:57.848Z,20.31
2022-09-02T07:18:26.002Z,20.38
2022-09-02T07:20:55.225Z,20.42
2022-09-02T07:23:27.903Z,20.54
2022-09-02T07:25:57.137Z,20.57
2022-09-02T07:28:27.576Z,20.77
2022-09-02T07:30:59.652Z,20.72
2022-09-02T07:33:28.388Z,20.85
2022-09-02T07:35:57.037Z,20.97
2022-09-02T07:38:25.922Z,21.04
2022-09-02T07:40:57.157Z,20.71
2022-09-02T07:43:27.996Z,20.66
2022-09-02T07:45:57.416Z,20.70
2022-09-02T07:48:26.620Z,20.64
2022-09-02T07:50:55.149Z,20.72
2022-09-02T07:53:24.250Z,20.88
2022-09-02T07:55:52.520Z,21.05
2022-09-02T07:58:22.879Z,21.16
2022-09-02T08:00:53.927Z,21.40
2022-09-02T08:03:23.182Z,21.42
2022-09-02T08:05:51.891Z,21.38
2022-09-02T08:08:21.713Z,21.33
2022-09-02T08:10:51.470Z,21.32
2022-09-02T08:13:20.022Z,21.40
2022-09-02T08:15:50.895Z,21.28
2022-09-02T08:18:22.583Z,21.43
2022-09-02T08:20:51.342Z,21.38
2022-09-02T08:23:33.647Z,21.38
2022-09-02T08:26:04.705Z,21.12
2022-09-02T08:28:33.252Z,21.14
2022-09-02T08:31:05.729Z,21.21
2022-09-02T08:33:35.459Z,21.29
2022-09-02T08:36:05.680Z,21.27
2022-09-02T08:38:33.721Z,21.25
2022-09-02T08:41:02.480Z,21.21
2022-09-02T08:43:38.505Z,21.00
2022-09-02T08:46:09.407Z,21.08
2022-09-02T08:48:45.907Z,21.19
2022-09-02T08:51:21.716Z,21.09
2022-09-02T08:53:53.583Z,21.16
2022-09-02T08:56:21.844Z,21.17
2022-09-02T08:58:56.490Z,21.17
2022-09-02T09:01:34.830Z,21.21
2022-09-02T09:04:14.948Z,21.26
2022-09-02T09:07:00.590Z,21.38
2022-09-02T09:09:37.950Z,21.46
2022-09-02T09:12:15.288Z,21.44
2022-09-02T09:14:50.090Z,21.38
2022-09-02T09:17:27.907Z,21.53
2022-09-02T09:20:03.218Z,21.43
2022-09-02T09:22:37.498Z,21.46
2022-09-02T09:25:11.528Z,21.36
2022-09-02T09:27:40.441Z,21.34
2022-09-02T09:30:15.011Z,21.51
2022-09-02T09:32:47.965Z,21.77
2022-09-02T09:35:18.799Z,22.09
2022-09-02T09:37:48.551Z,22.35
2022-09-02T09:40:26.939Z,22.42
2022-09-02T09:42:58.994Z,22.64
2022-09-02T09:45:35.140Z,22.82
2022-09-02T09:48:27.758Z,23.08
2022-09-02T09:51:16.050Z,23.17
2022-09-02T09:53:45.003Z,23.20
2022-09-02T09:56:29.808Z,22.99
2022-09-02T09:58:58.523Z,23.13
2022-09-02T10:01:30.563Z,23.12
2022-09-02T10:04:01.172Z,23.12
2022-09-02T10:06:42.239Z,22.96
2022-09-02T10:09:30.084Z,23.03
2022-09-02T10:12:00.682Z,23.09
2022-09-02T10:14:34.812Z,23.24
2022-09-02T10:17:16.738Z,23.28
2022-09-02T10:19:53.827Z,23.32
2022-09-02T10:22:58.671Z,23.24
2022-09-02T10:25:33.952Z,23.25
2022-09-02T10:28:10.868Z,23.36
2022-09-02T10:30:50.687Z,23.54
2022-09-02T10:33:31.775Z,23.84
2022-09-02T10:36:08.873Z,23.81
2022-09-02T10:38:44.180Z,23.30
2022-09-02T10:41:27.630Z,23.48
2022-09-02T10:44:07.562Z,23.65
2022-09-02T10:46:45.529Z,23.72
2022-09-02T10:49:24.141Z,23.78
2022-09-02T10:52:04.649Z,23.74
2022-09-02T10:54:44.805Z,23.81
2022-09-02T10:57:17.382Z,23.80
2022-09-02T10:59:51.445Z,24.00
2022-09-02T11:02:23.141Z,24.05
2022-09-02T11:04:56.612Z,24.18
2022-09-02T11:07:30.023Z,24.56
2022-09-02T11:10:06.855Z,24.70
2022-09-02T11:12:39.317Z,24.95
2022-09-02T11:15:13.742Z,25.45
2022-09-02T11:17:48.607Z,25.30
2022-09-02T11:20:31.838Z,25.37
2022-09-02T11:23:08.124Z,25.83
2022-09-02T11:25:44.147Z,26.48
2022-09-02T11:28:28.381Z,27.08
2022-09-02T11:31:02.926Z,27.09
2022-09-02T11:33:35.808Z,26.82
2022-09-02T11:36:05.474Z,26.35
2022-09-02T11:38:38.206Z,26.47
2022-09-02T11:41:35.832Z,26.70
2022-09-02T11:44:22.308Z,26.81
2022-09-02T11:47:13.327Z,26.46
2022-09-02T11:50:11.206Z,26.17
2022-09-02T11:52:59.031Z,25.92
2022-09-02T11:55:34.324Z,26.10
2022-09-02T11:58:04.992Z,25.98
2022-09-02T12:00:36.699Z,25.89
2022-09-02T12:03:38.835Z,26.02
2022-09-02T12:06:11.210Z,25.83
2022-09-02T12:09:04.855Z,25.70
2022-09-02T12:11:59.344Z,25.66
2022-09-02T12:15:06.674Z,25.72
2022-09-02T12:18:17.349Z,25.76
2022-09-02T12:21:16.350Z,25.94
2022-09-02T12:24:09.975Z,25.99
2022-09-02T12:27:26.555Z,25.88
2022-09-02T12:29:56.020Z,25.62
2022-09-02T12:33:05.095Z,25.66
2022-09-02T12:35:52.090Z,25.63
2022-09-02T12:38:38.797Z,25.23
2022-09-02T12:41:21.794Z,25.05
2022-09-02T12:44:19.444Z,25.14
2022-09-02T12:46:58.789Z,25.38
2022-09-02T12:49:37.460Z,25.58
2022-09-02T12:52:09.423Z,25.75
2022-09-02T12:54:47.989Z,25.71
2022-09-02T12:57:17.452Z,25.50
2022-09-02T12:59:47.308Z,25.55
2022-09-02T13:02:30.310Z,25.40
2022-09-02T13:05:16.158Z,25.21
2022-09-02T13:08:14.900Z,25.13
2022-09-02T13:11:20.736Z,25.07
2022-09-02T13:14:20.983Z,25.10
2022-09-02T13:17:09.022Z,24.79
2022-09-02T13:20:00.323Z,24.68
2022-09-02T13:23:01.889Z,24.42
2022-09-02T13:25:57.083Z,24.25
2022-09-02T13:29:00.668Z,24.20
2022-09-02T13:31:29.392Z,24.05
2022-09-02T13:34:04.259Z,24.07
2022-09-02T13:36:37.406Z,24.12
2022-09-02T13:39:14.244Z,23.97
2022-09-02T13:41:42.531Z,23.95
2022-09-02T13:44:14.195Z,23.64
2022-09-02T13:46:50.521Z,23.37
2022-09-02T13:49:24.537Z,23.24
2022-09-02T13:51:55.078Z,22.89
2022-09-02T13:54:34.105Z,22.88
2022-09-02T13:57:06.579Z,22.59
2022-09-02T13:59:38.629Z,22.18
2022-09-02T14:02:26.368Z,21.82
2022-09-02T14:04:59.095Z,21.85
2022-09-02T14:07:34.305Z,21.61
2022-09-02T14:10:06.869Z,21.49
2022-09-02T14:12:37.809Z,21.22
2022-09-02T14:15:09.430Z,21.16
2022-09-02T14:17:37.684Z,20.95
2022-09-02T14:20:19.132Z,20.93
2022-09-02T14:22:54.795Z,20.83
2022-09-02T14:25:27.245Z,20.80
2022-09-02T14:27:58.091Z,20.60
2022-09-02T14:30:38.003Z,20.62
2022-09-02T14:33:28.266Z,20.82
2022-09-02T14:35:58.203Z,20.97
2022-09-02T14:38:28.222Z,21.03
2022-09-02T14:41:04.711Z,21.09
2022-09-02T14:43:43.417Z,20.90
2022-09-02T14:46:22.971Z,20.96
2022-09-02T14:48:56.099Z,20.77
2022-09-02T14:51:24.165Z,20.85
2022-09-02T14:53:53.136Z,20.78
2022-09-02T14:56:45.910Z,20.75
2022-09-02T14:59:14.227Z,20.78
2022-09-02T15:01:47.259Z,20.63
2022-09-02T15:04:16.161Z,20.64
2022-09-02T15:06:45.306Z,20.58
2022-09-02T15:09:16.597Z,20.60
2022-09-02T15:11:47.185Z,20.62
2022-09-02T15:14:15.860Z,20.71
2022-09-02T15:16:45.288Z,20.57
2022-09-02T15:19:13.279Z,20.66
2022-09-02T15:21:41.629Z,20.60
2022-09-02T15:24:09.638Z,20.56
2022-09-02T15:26:37.857Z,20.60
2022-09-02T15:29:06.044Z,20.56
2022-09-02T15:31:35.260Z,20.71
2022-09-02T15:34:04.899Z,20.72
2022-09-02T15:36:32.971Z,20.65
2022-09-02T15:39:01.256Z,20.57
2022-09-02T15:41:31.563Z,20.64
2022-09-02T15:44:01.026Z,20.55
2022-09-02T15:46:31.762Z,20.43
2022-09-02T15:49:03.112Z,20.39
2022-09-02T15:51:33.249Z,20.41
2022-09-02T15:54:03.487Z,20.38
2022-09-02T15:56:34.229Z,20.28
2022-09-02T15:59:05.013Z,20.23
2022-09-02T16:01:35.758Z,20.21
2022-09-02T16:04:04.289Z,20.18
2022-09-02T16:06:36.087Z,20.17
2022-09-02T16:09:05.064Z,20.22
2022-09-02T16:11:33.434Z,20.28
2022-09-02T16:14:01.442Z,20.15
2022-09-02T16:16:29.483Z,20.01
2022-09-02T16:18:57.539Z,19.97
2022-09-02T16:21:25.873Z,19.82
2022-09-02T16:23:55.417Z,19.75
2022-09-02T16:26:26.037Z,19.75
2022-09-02T16:28:56.665Z,19.67
2022-09-02T16:31:26.433Z,19.60
2022-09-02T16:33:55.441Z,19.64
2022-09-02T16:36:24.401Z,19.56
2022-09-02T16:38:56.465Z,19.36
2022-09-02T16:41:28.217Z,18.89
2022-09-02T16:43:58.138Z,18.54
2022-09-02T16:46:27.991Z,18.35
2022-09-02T16:48:57.946Z,18.20
2022-09-02T16:51:27.758Z,18.08
2022-09-02T16:53:58.867Z,18.04
2022-09-02T16:56:27.186Z,18.10
2022-09-02T16:58:56.005Z,18.01
2022-09-02T17:01:27.617Z,18.03
2022-09-02T17:04:00.844Z,18.00
2022-09-02T17:06:29.470Z,17.99
2022-09-02T17:08:59.404Z,17.91
2022-09-02T17:11:29.609Z,17.87
2022-09-02T17:13:59.732Z,17.65
2022-09-02T17:16:30.695Z,17.40
2022-09-02T17:18:59.581Z,17.25
2022-09-02T17:21:31.107Z,17.26
2022-09-02T17:24:01.021Z,17.41
2022-09-02T17:26:30.974Z,17.49
2022-09-02T17:28:59.280Z,17.52
2022-09-02T17:31:30.053Z,17.51
2022-09-02T17:33:59.627Z,17.48
2022-09-02T17:36:29.960Z,17.43
2022-09-02T17:38:58.946Z,17.34
2022-09-02T17:41:45.963Z,17.24
2022-09-02T17:44:16.272Z,17.16
2022-09-02T17:46:45.381Z,17.08
2022-09-02T17:49:17.249Z,17.19
2022-09-02T17:51:46.606Z,17.02
2022-09-02T17:54:15.901Z,17.13
2022-09-02T17:57:10.622Z,17.16
2022-09-02T17:59:53.290Z,17.30
2022-09-02T18:02:48.831Z,17.26
2022-09-02T18:05:22.772Z,17.27
2022-09-02T18:08:02.584Z,17.23
2022-09-02T18:10:34.414Z,17.16
2022-09-02T18:13:08.042Z,17.15
2022-09-02T18:15:43.312Z,17.16
2022-09-02T18:18:12.022Z,17.14
2022-09-02T18:20:43.093Z,17.10
2022-09-02T18:23:42.733Z,17.20
2022-09-02T18:26:24.338Z,17.20
2022-09-02T18:29:10.319Z,17.20
2022-09-02T18:31:49.263Z,17.14
2022-09-02T18:34:38.944Z,17.10
2022-09-02T18:37:16.440Z,17.10
2022-09-02T18:40:02.693Z,17.19
2022-09-02T18:42:38.813Z,17.22
2022-09-02T18:45:21.513Z,17.23
2022-09-02T18:47:55.072Z,17.18
2022-09-02T18:50:47.655Z,17.10
2022-09-02T18:53:20.900Z,17.03
2022-09-02T18:55:49.322Z,17.04
2022-09-02T18:58:31.710Z,17.05
2022-09-02T19:01:06.682Z,17.13
2022-09-02T19:03:37.322Z,17.08
2022-09-02T19:06:08.579Z,16.96
2022-09-02T19:08:38.281Z,16.79
2022-09-02T19:11:09.439Z,16.53
2022-09-02T19:13:46.024Z,16.40
2022-09-02T19:16:17.621Z,16.31
2022-09-02T19:18:45.786Z,16.31
2022-09-02T19:21:18.959Z,16.29
2022-09-02T19:23:49.347Z,16.36
2022-09-02T19:26:18.925Z,16.21
2022-09-02T19:28:48.503Z,16.23
2022-09-02T19:31:22.889Z,16.16
2022-09-02T19:33:52.883Z,16.26
2022-09-02T19:36:22.663Z,16.27
2022-09-02T19:38:50.802Z,16.21
2022-09-02T19:41:18.878Z,16.29
2022-09-02T19:43:47.637Z,16.12
2022-09-02T19:46:43.957Z,16.14
2022-09-02T19:49:05.146Z,16.11
2022-09-02T19:51:33.222Z,16.07
2022-09-02T19:54:01.213Z,16.09
2022-09-02T19:56:29.243Z,16.04
2022-09-02T19:58:57.310Z,16.05
2022-09-02T20:01:25.396Z,16.00
2022-09-02T20:03:53.467Z,16.10
2022-09-02T20:06:22.867Z,15.97
2022-09-02T20:08:51.234Z,16.04
2022-09-02T20:11:19.246Z,16.08
2022-09-02T20:13:49.214Z,16.00
2022-09-02T20:16:19.907Z,15.90
2022-09-02T20:18:49.405Z,15.83
2022-09-02T20:21:21.517Z,15.86
2022-09-02T20:23:51.197Z,15.92
2022-09-02T20:26:27.567Z,15.94
2022-09-02T20:29:12.197Z,15.98
2022-09-02T20:32:02.875Z,15.91
2022-09-02T20:34:49.096Z,15.90
2022-09-02T20:37:29.349Z,15.89
2022-09-02T20:40:14.725Z,15.93
2022-09-02T20:43:24.610Z,15.83
2022-09-02T20:45:58.485Z,15.87
2022-09-02T20:48:43.507Z,15.84
2022-09-02T20:51:16.271Z,15.85
2022-09-02T20:54:05.376Z,15.80
2022-09-02T20:56:47.550Z,15.75
2022-09-02T20:59:23.949Z,15.76
2022-09-02T21:01:58.413Z,15.88
2022-09-02T21:04:33.883Z,15.88
2022-09-02T21:07:06.025Z,15.90
2022-09-02T21:09:42.085Z,15.85
2022-09-02T21:12:22.385Z,15.85
2022-09-02T21:15:00.165Z,15.84
2022-09-02T21:17:36.679Z,15.82
2022-09-02T21:20:13.949Z,15.80
2022-09-02T21:22:46.226Z,15.80
2022-09-02T21:25:20.517Z,15.75
2022-09-02T21:27:54.594Z,15.82
2022-09-02T21:30:24.213Z,15.77
2022-09-02T21:32:56.023Z,15.75
2022-09-02T21:35:26.971Z,15.81
2022-09-02T21:38:00.162Z,15.78
2022-09-02T21:40:33.594Z,15.72
2022-09-02T21:43:21.526Z,15.71
2022-09-02T21:45:59.023Z,15.71
2022-09-02T21:48:36.208Z,15.75
2022-09-02T21:51:09.686Z,15.71
2022-09-02T21:53:53.657Z,15.68
2022-09-02T21:56:39.666Z,15.57
2022-09-02T21:59:22.722Z,15.64
2022-09-02T22:01:56.296Z,15.69
2022-09-02T22:04:39.499Z,15.69
2022-09-02T22:07:19.254Z,15.68
2022-09-02T22:09:51.372Z,15.65
2022-09-02T22:12:23.027Z,15.62
2022-09-02T22:15:01.801Z,15.57
2022-09-02T22:17:44.679Z,15.62
2022-09-02T22:20:17.727Z,15.59
2022-09-02T22:22:53.305Z,15.53
2022-09-02T22:25:22.621Z,15.56
2022-09-02T22:27:56.990Z,15.57
2022-09-02T22:30:28.836Z,15.58
2022-09-02T22:33:07.284Z,15.56
2022-09-02T22:35:41.460Z,15.56
2022-09-02T22:38:16.683Z,15.57
2022-09-02T22:40:51.854Z,15.52
2022-09-02T22:43:25.242Z,15.58
2022-09-02T22:46:17.994Z,15.62
2022-09-02T22:49:09.784Z,15.57
2022-09-02T22:52:02.908Z,15.51
2022-09-02T22:54:32.103Z,15.49
2022-09-02T22:57:07.496Z,15.51
2022-09-02T22:59:48.841Z,15.47
2022-09-02T23:02:24.275Z,15.47
2022-09-02T23:05:08.123Z,15.48
2022-09-02T23:07:36.195Z,15.49
2022-09-02T23:10:15.379Z,15.44
2022-09-02T23:12:52.295Z,15.38
2022-09-02T23:15:27.278Z,15.44
2022-09-02T23:18:05.904Z,15.39
2022-09-02T23:20:45.329Z,15.41
2022-09-02T23:23:29.476Z,15.44
2022-09-02T23:26:18.711Z,15.47
2022-09-02T23:29:07.473Z,15.53
2022-09-02T23:32:00.600Z,15.52
2022-09-02T23:34:46.259Z,15.47
2022-09-02T23:37:26.998Z,15.53
2022-09-02T23:40:03.957Z,15.58
2022-09-02T23:42:32.138Z,15.52
2022-09-02T23:45:18.813Z,15.51
2022-09-02T23:47:58.187Z,15.52
2022-09-02T23:50:38.287Z,15.53
2022-09-02T23:53:11.314Z,15.56
2022-09-02T23:55:49.219Z,15.62
2022-09-02T23:58:33.874Z,15.66
